createdAt,value
2022-10-30T00:00:08.649Z,11.02
2022-10-30T00:01:10.287Z,11.00
2022-10-30T00:02:12.197Z,11.04
2022-10-30T00:03:15.243Z,11.02
2022-10-30T00:04:17.100Z,10.89
2022-10-30T00:05:20.962Z,10.95
2022-10-30T00:06:22.620Z,10.97
2022-10-30T00:07:24.358Z,10.87
2022-10-30T00:08:26.054Z,10.88
2022-10-30T00:09:27.745Z,10.86
2022-10-30T00:10:29.381Z,10.89
2022-10-30T00:11:31.037Z,10.90
2022-10-30T00:12:32.807Z,10.95
2022-10-30T00:13:34.547Z,10.93
2022-10-30T00:14:36.239Z,10.85
2022-10-30T00:15:38.521Z,10.86
2022-10-30T00:16:40.165Z,10.69
2022-10-30T00:17:41.864Z,10.66
2022-10-30T00:18:43.619Z,10.69
2022-10-30T00:19:45.298Z,10.73
2022-10-30T00:20:47.496Z,10.77
2022-10-30T00:21:49.164Z,10.75
2022-10-30T00:22:50.917Z,10.69
2022-10-30T00:23:53.778Z,10.54
2022-10-30T00:24:55.469Z,10.56
2022-10-30T00:25:57.152Z,10.53
2022-10-30T00:26:58.797Z,10.52
2022-10-30T00:28:00.488Z,10.56
2022-10-30T00:29:02.135Z,10.53
2022-10-30T00:30:04.147Z,10.56
2022-10-30T00:31:06.206Z,10.60
2022-10-30T00:32:08.097Z,10.56
2022-10-30T00:33:09.792Z,10.58
2022-10-30T00:34:11.601Z,10.59
2022-10-30T00:35:13.242Z,10.60
2022-10-30T00:36:14.909Z,10.59
2022-10-30T00:37:16.809Z,10.57
2022-10-30T00:38:18.496Z,10.63
2022-10-30T00:39:20.149Z,10.63
2022-10-30T00:40:22.253Z,10.64
2022-10-30T00:41:25.228Z,10.62
2022-10-30T00:42:30.421Z,10.63
2022-10-30T00:43:36.756Z,10.61
2022-10-30T00:44:53.145Z,10.54
2022-10-30T00:45:56.091Z,10.50
2022-10-30T00:46:59.381Z,10.47
2022-10-30T00:48:03.950Z,10.46
2022-10-30T00:49:16.915Z,10.45
2022-10-30T00:50:38.818Z,10.34
2022-10-30T00:51:45.241Z,10.36
2022-10-30T00:52:52.863Z,10.26
2022-10-30T00:53:58.090Z,10.29
2022-10-30T00:55:04.740Z,10.29
2022-10-30T00:56:08.829Z,10.27
2022-10-30T00:57:10.747Z,10.11
2022-10-30T00:58:17.276Z,10.06
2022-10-30T00:59:25.263Z,10.10
2022-10-30T01:00:28.900Z,9.97
2022-10-30T01:01:36.813Z,10.02
2022-10-30T01:02:40.595Z,10.02
2022-10-30T01:03:42.436Z,10.11
2022-10-30T01:04:46.356Z,10.06
2022-10-30T01:05:51.792Z,10.08
2022-10-30T01:06:53.822Z,10.10
2022-10-30T01:07:55.701Z,10.17
2022-10-30T01:09:00.011Z,10.19
2022-10-30T01:10:02.173Z,10.20
2022-10-30T01:11:05.474Z,10.17
2022-10-30T01:12:07.772Z,10.21
2022-10-30T01:13:09.827Z,10.20
2022-10-30T01:14:14.571Z,10.24
2022-10-30T01:15:16.476Z,10.28
2022-10-30T01:16:53.517Z,10.30
2022-10-30T01:18:41.521Z,10.30
2022-10-30T01:19:56.955Z,10.33
2022-10-30T01:21:19.692Z,10.28
2022-10-30T01:22:39.566Z,10.25
2022-10-30T01:23:50.301Z,10.23
2022-10-30T01:25:03.915Z,10.24
2022-10-30T01:26:27.178Z,10.25
2022-10-30T01:27:40.458Z,10.24
2022-10-30T01:29:12.192Z,10.17
2022-10-30T01:30:25.967Z,10.21
2022-10-30T01:31:41.303Z,10.09
2022-10-30T01:33:03.976Z,10.05
2022-10-30T01:34:19.975Z,9.84
2022-10-30T01:35:32.447Z,9.76
2022-10-30T01:36:40.787Z,9.81
2022-10-30T01:37:48.574Z,9.89
2022-10-30T01:39:22.698Z,9.86
2022-10-30T01:40:24.478Z,9.87
2022-10-30T01:41:26.188Z,9.83
2022-10-30T01:42:46.718Z,9.89
2022-10-30T01:43:53.265Z,9.91
2022-10-30T01:44:54.953Z,9.98
2022-10-30T01:46:24.235Z,10.01
2022-10-30T01:47:46.799Z,10.04
2022-10-30T01:49:17.721Z,10.02
2022-10-30T01:50:57.236Z,10.05
2022-10-30T01:52:26.712Z,10.01
2022-10-30T01:53:46.963Z,10.03
2022-10-30T01:55:08.201Z,10.02
2022-10-30T01:56:27.709Z,10.03
2022-10-30T01:57:34.639Z,10.03
2022-10-30T01:59:15.886Z,9.96
2022-10-30T02:00:20.232Z,9.93
2022-10-30T02:01:24.062Z,9.96
2022-10-30T02:02:26.494Z,9.92
2022-10-30T02:03:28.439Z,9.85
2022-10-30T02:04:31.076Z,9.84
2022-10-30T02:05:44.067Z,9.67
2022-10-30T02:06:46.047Z,9.54
2022-10-30T02:07:47.834Z,9.36
2022-10-30T02:08:49.490Z,9.57
2022-10-30T02:09:52.691Z,9.65
2022-10-30T02:10:55.557Z,9.67
2022-10-30T02:11:58.296Z,9.56
2022-10-30T02:13:00.087Z,9.48
2022-10-30T02:14:07.051Z,9.52
2022-10-30T02:15:10.105Z,9.50
2022-10-30T02:16:11.951Z,9.51
2022-10-30T02:17:14.005Z,9.57
2022-10-30T02:18:15.863Z,9.56
2022-10-30T02:19:17.917Z,9.57
2022-10-30T02:20:20.578Z,9.62
2022-10-30T02:21:22.526Z,9.59
2022-10-30T02:22:25.069Z,9.57
2022-10-30T02:23:26.910Z,9.67
2022-10-30T02:24:29.344Z,9.67
2022-10-30T02:25:31.158Z,9.70
2022-10-30T02:26:32.882Z,9.65
2022-10-30T02:27:34.526Z,9.74
2022-10-30T02:28:36.901Z,9.71
2022-10-30T02:29:38.642Z,9.72
2022-10-30T02:30:44.274Z,9.77
2022-10-30T02:31:45.974Z,9.75
2022-10-30T02:32:47.759Z,9.73
2022-10-30T02:33:49.687Z,9.72
2022-10-30T02:34:51.335Z,9.80
2022-10-30T02:35:53.428Z,9.75
2022-10-30T02:36:55.108Z,9.79
2022-10-30T02:37:57.127Z,9.84
2022-10-30T02:39:00.218Z,9.80
2022-10-30T02:40:06.100Z,9.80
2022-10-30T02:41:07.790Z,9.65
2022-10-30T02:42:09.427Z,9.55
2022-10-30T02:43:11.070Z,9.50
2022-10-30T02:44:12.756Z,9.44
2022-10-30T02:45:14.437Z,9.38
2022-10-30T02:46:16.154Z,9.40
2022-10-30T02:47:17.849Z,9.45
2022-10-30T02:48:19.537Z,9.49
2022-10-30T02:49:21.220Z,9.54
2022-10-30T02:50:22.860Z,9.57
2022-10-30T02:51:24.569Z,9.59
2022-10-30T02:52:26.228Z,9.61
2022-10-30T02:53:27.961Z,9.60
2022-10-30T02:54:29.622Z,9.64
2022-10-30T02:55:31.294Z,9.67
2022-10-30T02:56:32.985Z,9.70
2022-10-30T02:57:34.657Z,9.66
2022-10-30T02:58:36.783Z,9.68
2022-10-30T02:59:38.531Z,9.53
2022-10-30T03:00:40.169Z,9.49
2022-10-30T03:01:42.030Z,9.48
2022-10-30T03:02:43.790Z,9.51
2022-10-30T03:03:46.297Z,9.51
2022-10-30T03:04:48.077Z,9.55
2022-10-30T03:05:49.795Z,9.55
2022-10-30T03:06:51.493Z,9.59
2022-10-30T03:07:55.115Z,9.58
2022-10-30T03:08:56.941Z,9.51
2022-10-30T03:09:58.637Z,9.42
2022-10-30T03:11:05.951Z,9.41
2022-10-30T03:12:08.020Z,9.38
2022-10-30T03:13:09.679Z,9.38
2022-10-30T03:14:11.902Z,9.44
2022-10-30T03:15:13.595Z,9.44
2022-10-30T03:16:17.239Z,9.47
2022-10-30T03:17:18.892Z,9.48
2022-10-30T03:18:20.668Z,9.50
2022-10-30T03:19:22.404Z,9.52
2022-10-30T03:20:24.105Z,9.48
2022-10-30T03:21:28.074Z,9.43
2022-10-30T03:22:30.075Z,9.36
2022-10-30T03:23:32.063Z,9.30
2022-10-30T03:24:33.734Z,9.29
2022-10-30T03:25:35.384Z,9.29
2022-10-30T03:26:37.025Z,9.17
2022-10-30T03:27:38.719Z,9.14
2022-10-30T03:28:40.376Z,9.00
2022-10-30T03:29:42.027Z,9.07
2022-10-30T03:30:43.731Z,9.08
2022-10-30T03:31:45.472Z,9.10
2022-10-30T03:32:47.179Z,9.15
2022-10-30T03:33:48.901Z,9.18
2022-10-30T03:34:50.577Z,9.16
2022-10-30T03:35:52.265Z,9.24
2022-10-30T03:36:53.923Z,9.21
2022-10-30T03:37:55.586Z,9.20
2022-10-30T03:38:57.330Z,9.14
2022-10-30T03:39:58.973Z,9.25
2022-10-30T03:41:01.018Z,9.25
2022-10-30T03:42:02.674Z,9.26
2022-10-30T03:43:04.467Z,9.30
2022-10-30T03:44:06.159Z,9.26
2022-10-30T03:45:08.378Z,9.23
2022-10-30T03:46:11.221Z,9.25
2022-10-30T03:47:12.877Z,9.26
2022-10-30T03:48:14.804Z,9.27
2022-10-30T03:49:16.496Z,9.27
2022-10-30T03:50:18.132Z,9.24
2022-10-30T03:51:19.779Z,9.28
2022-10-30T03:52:21.444Z,9.27
2022-10-30T03:53:26.240Z,9.28
2022-10-30T03:54:27.934Z,9.21
2022-10-30T03:55:29.776Z,9.17
2022-10-30T03:56:31.454Z,9.11
2022-10-30T03:57:37.270Z,9.05
2022-10-30T03:58:38.966Z,9.05
2022-10-30T03:59:40.674Z,9.11
2022-10-30T04:00:42.341Z,9.13
2022-10-30T04:01:44.136Z,9.17
2022-10-30T04:02:50.776Z,9.18
2022-10-30T04:03:52.421Z,9.18
2022-10-30T04:04:54.113Z,9.13
2022-10-30T04:05:55.772Z,9.06
2022-10-30T04:06:57.457Z,9.03
2022-10-30T04:08:01.586Z,9.04
2022-10-30T04:09:03.520Z,9.03
2022-10-30T04:10:05.560Z,9.03
2022-10-30T04:11:10.245Z,9.03
2022-10-30T04:12:11.966Z,9.07
2022-10-30T04:13:16.064Z,9.03
2022-10-30T04:14:17.714Z,8.82
2022-10-30T04:15:19.408Z,9.01
2022-10-30T04:16:21.058Z,8.97
2022-10-30T04:17:22.740Z,9.04
2022-10-30T04:18:25.125Z,9.04
2022-10-30T04:19:26.809Z,8.95
2022-10-30T04:20:29.215Z,9.02
2022-10-30T04:21:30.893Z,9.03
2022-10-30T04:22:32.686Z,9.05
2022-10-30T04:23:34.411Z,9.06
2022-10-30T04:24:36.050Z,8.87
2022-10-30T04:25:37.748Z,8.92
2022-10-30T04:26:39.391Z,8.95
2022-10-30T04:27:45.124Z,8.97
2022-10-30T04:28:48.237Z,8.95
2022-10-30T04:29:49.890Z,8.86
2022-10-30T04:30:51.585Z,8.70
2022-10-30T04:31:53.484Z,8.73
2022-10-30T04:32:57.287Z,8.72
2022-10-30T04:33:59.515Z,8.74
2022-10-30T04:35:01.146Z,8.79
2022-10-30T04:36:02.808Z,8.69
2022-10-30T04:37:05.252Z,8.66
2022-10-30T04:38:10.219Z,8.69
2022-10-30T04:39:11.930Z,8.61
2022-10-30T04:40:13.603Z,8.55
2022-10-30T04:41:15.261Z,8.48
2022-10-30T04:42:17.071Z,8.57
2022-10-30T04:43:18.714Z,8.60
2022-10-30T04:44:20.423Z,8.58
2022-10-30T04:45:22.188Z,8.53
2022-10-30T04:46:23.894Z,8.50
2022-10-30T04:47:25.632Z,8.42
2022-10-30T04:48:27.514Z,8.43
2022-10-30T04:49:29.143Z,8.44
2022-10-30T04:50:31.967Z,8.42
2022-10-30T04:51:33.756Z,8.33
2022-10-30T04:52:35.455Z,8.39
2022-10-30T04:53:37.347Z,8.33
2022-10-30T04:54:39.053Z,8.33
2022-10-30T04:55:40.779Z,8.45
2022-10-30T04:56:42.461Z,8.49
2022-10-30T04:57:44.116Z,8.52
2022-10-30T04:58:45.771Z,8.63
2022-10-30T04:59:47.448Z,8.66
2022-10-30T05:00:49.138Z,8.64
2022-10-30T05:01:50.891Z,8.78
2022-10-30T05:02:53.068Z,8.77
2022-10-30T05:03:55.107Z,8.76
2022-10-30T05:04:56.888Z,8.82
2022-10-30T05:06:02.164Z,8.74
2022-10-30T05:07:03.906Z,8.79
2022-10-30T05:08:05.645Z,8.75
2022-10-30T05:09:07.304Z,8.82
2022-10-30T05:10:12.386Z,8.87
2022-10-30T05:11:14.088Z,8.88
2022-10-30T05:12:17.082Z,8.89
2022-10-30T05:13:18.724Z,8.98
2022-10-30T05:14:20.404Z,8.99
2022-10-30T05:15:22.295Z,9.03
2022-10-30T05:16:23.982Z,8.96
2022-10-30T05:17:25.712Z,9.07
2022-10-30T05:18:27.447Z,9.15
2022-10-30T05:19:29.210Z,9.14
2022-10-30T05:20:30.878Z,9.21
2022-10-30T05:21:32.558Z,9.16
2022-10-30T05:22:34.320Z,9.16
2022-10-30T05:23:35.956Z,9.22
2022-10-30T05:24:37.625Z,9.19
2022-10-30T05:25:39.319Z,9.22
2022-10-30T05:26:41.139Z,9.26
2022-10-30T05:27:42.838Z,9.15
2022-10-30T05:28:44.548Z,9.18
2022-10-30T05:29:46.201Z,9.12
2022-10-30T05:30:47.898Z,9.11
2022-10-30T05:31:49.611Z,9.15
2022-10-30T05:32:51.259Z,9.17
2022-10-30T05:33:52.908Z,9.23
2022-10-30T05:34:54.553Z,9.26
2022-10-30T05:35:56.208Z,9.29
2022-10-30T05:36:57.875Z,9.33
2022-10-30T05:38:00.784Z,9.38
2022-10-30T05:39:03.097Z,9.43
2022-10-30T05:40:05.238Z,9.51
2022-10-30T05:41:06.960Z,9.54
2022-10-30T05:42:13.566Z,9.58
2022-10-30T05:43:15.677Z,9.62
2022-10-30T05:44:28.840Z,9.66
2022-10-30T05:45:38.805Z,9.69
2022-10-30T05:46:40.891Z,9.63
2022-10-30T05:47:42.899Z,9.65
2022-10-30T05:48:44.569Z,9.67
2022-10-30T05:49:46.215Z,9.77
2022-10-30T05:50:47.927Z,9.81
2022-10-30T05:51:49.593Z,9.88
2022-10-30T05:52:58.393Z,9.95
2022-10-30T05:54:00.057Z,9.84
2022-10-30T05:55:01.780Z,9.90
2022-10-30T05:56:03.640Z,9.98
2022-10-30T05:57:05.286Z,10.03
2022-10-30T05:58:07.333Z,10.17
2022-10-30T05:59:08.995Z,10.23
2022-10-30T06:00:11.642Z,10.27
2022-10-30T06:01:13.377Z,10.30
2022-10-30T06:02:17.137Z,10.40
2022-10-30T06:03:18.873Z,10.46
2022-10-30T06:04:20.504Z,10.54
2022-10-30T06:05:22.154Z,10.51
2022-10-30T06:06:23.851Z,10.66
2022-10-30T06:07:25.516Z,10.73
2022-10-30T06:08:27.227Z,10.77
2022-10-30T06:09:28.880Z,10.82
2022-10-30T06:10:30.729Z,10.86
2022-10-30T06:11:32.441Z,10.93
2022-10-30T06:12:34.198Z,10.97
2022-10-30T06:13:35.883Z,11.06
2022-10-30T06:14:37.523Z,11.12
2022-10-30T06:15:39.219Z,11.14
2022-10-30T06:16:40.873Z,11.23
2022-10-30T06:17:42.626Z,11.31
2022-10-30T06:18:44.272Z,11.33
2022-10-30T06:19:45.908Z,11.38
2022-10-30T06:20:47.594Z,11.43
2022-10-30T06:21:49.355Z,11.49
2022-10-30T06:23:10.421Z,11.52
2022-10-30T06:24:12.294Z,11.58
2022-10-30T06:25:14.096Z,11.70
2022-10-30T06:26:15.768Z,11.76
2022-10-30T06:27:17.406Z,11.83
2022-10-30T06:28:19.051Z,11.87
2022-10-30T06:29:20.695Z,11.93
2022-10-30T06:30:22.964Z,12.01
2022-10-30T06:31:24.727Z,12.04
2022-10-30T06:32:26.391Z,12.11
2022-10-30T06:33:28.160Z,12.20
2022-10-30T06:34:29.945Z,12.23
2022-10-30T06:35:32.105Z,12.34
2022-10-30T06:36:58.574Z,12.57
2022-10-30T06:38:00.541Z,12.77
2022-10-30T06:39:02.358Z,13.03
2022-10-30T06:40:04.629Z,13.33
2022-10-30T06:41:06.276Z,13.60
2022-10-30T06:42:08.355Z,13.92
2022-10-30T06:43:10.115Z,14.29
2022-10-30T06:44:11.892Z,14.69
2022-10-30T06:45:14.735Z,15.15
2022-10-30T06:46:16.412Z,15.57
2022-10-30T06:47:18.169Z,15.91
2022-10-30T06:48:19.845Z,16.37
2022-10-30T06:49:21.504Z,16.75
2022-10-30T06:50:24.311Z,17.24
2022-10-30T06:51:26.057Z,17.66
2022-10-30T06:52:27.727Z,17.95
2022-10-30T06:53:29.567Z,18.43
2022-10-30T06:54:31.264Z,18.79
2022-10-30T06:55:33.153Z,19.13
2022-10-30T06:56:34.958Z,19.49
2022-10-30T06:57:36.672Z,19.84
2022-10-30T06:58:39.376Z,20.12
2022-10-30T06:59:41.020Z,20.39
2022-10-30T07:00:42.803Z,20.63
2022-10-30T07:01:44.707Z,20.96
2022-10-30T07:03:02.257Z,21.31
2022-10-30T07:04:04.456Z,21.38
2022-10-30T07:05:06.263Z,21.48
2022-10-30T07:06:08.269Z,21.65
2022-10-30T07:07:09.929Z,21.81
2022-10-30T07:08:11.955Z,21.83
2022-10-30T07:09:13.701Z,22.11
2022-10-30T07:10:15.491Z,22.51
2022-10-30T07:11:17.273Z,22.94
2022-10-30T07:12:18.964Z,23.22
2022-10-30T07:13:20.658Z,23.48
2022-10-30T07:14:22.337Z,23.86
2022-10-30T07:15:25.006Z,23.93
2022-10-30T07:16:26.681Z,24.09
2022-10-30T07:17:28.353Z,24.45
2022-10-30T07:18:30.148Z,24.85
2022-10-30T07:19:31.846Z,25.19
2022-10-30T07:20:35.241Z,25.21
2022-10-30T07:21:37.105Z,25.32
2022-10-30T07:22:39.438Z,25.42
2022-10-30T07:23:41.091Z,25.71
2022-10-30T07:24:42.734Z,26.23
2022-10-30T07:25:44.394Z,26.50
2022-10-30T07:26:46.049Z,26.57
2022-10-30T07:27:49.883Z,26.69
2022-10-30T07:28:51.580Z,26.98
2022-10-30T07:29:53.237Z,27.29
2022-10-30T07:30:54.945Z,27.51
2022-10-30T07:32:02.729Z,27.73
2022-10-30T07:33:06.832Z,28.03
2022-10-30T07:34:08.565Z,28.33
2022-10-30T07:35:12.797Z,28.65
2022-10-30T07:36:15.180Z,28.86
2022-10-30T07:37:16.904Z,29.12
2022-10-30T07:38:18.537Z,29.42
2022-10-30T07:39:20.193Z,29.64
2022-10-30T07:40:22.053Z,29.81
2022-10-30T07:41:23.730Z,30.00
2022-10-30T07:42:25.406Z,30.11
2022-10-30T07:43:27.061Z,30.06
2022-10-30T07:44:28.715Z,30.14
2022-10-30T07:45:31.627Z,30.34
2022-10-30T07:46:33.321Z,30.56
2022-10-30T07:47:42.090Z,30.74
2022-10-30T07:48:43.739Z,30.97
2022-10-30T07:49:45.538Z,31.07
2022-10-30T07:50:47.181Z,31.16
2022-10-30T07:51:48.827Z,31.23
2022-10-30T07:52:50.641Z,31.47
2022-10-30T07:53:52.313Z,31.63
2022-10-30T07:54:54.001Z,31.51
2022-10-30T07:55:56.119Z,31.61
2022-10-30T07:56:59.059Z,31.63
2022-10-30T07:58:00.899Z,31.74
2022-10-30T07:59:02.869Z,31.89
2022-10-30T08:00:10.450Z,31.98
2022-10-30T08:01:12.183Z,32.03
2022-10-30T08:02:14.620Z,32.13
2022-10-30T08:03:16.402Z,32.09
2022-10-30T08:04:18.105Z,32.10
2022-10-30T08:05:19.839Z,32.17
2022-10-30T08:06:24.628Z,32.24
2022-10-30T08:07:32.739Z,32.44
2022-10-30T08:08:37.856Z,32.43
2022-10-30T08:09:43.854Z,32.58
2022-10-30T08:10:45.531Z,32.70
2022-10-30T08:11:47.180Z,32.67
2022-10-30T08:12:48.881Z,32.68
2022-10-30T08:13:50.544Z,32.58
2022-10-30T08:14:53.168Z,32.59
2022-10-30T08:15:54.848Z,32.54
2022-10-30T08:16:57.010Z,32.49
2022-10-30T08:17:59.140Z,32.53
2022-10-30T08:19:01.397Z,32.54
2022-10-30T08:20:03.061Z,32.65
2022-10-30T08:21:04.894Z,32.84
2022-10-30T08:22:06.583Z,32.95
2022-10-30T08:23:09.017Z,32.92
2022-10-30T08:24:10.848Z,32.97
2022-10-30T08:25:12.526Z,33.02
2022-10-30T08:26:14.555Z,33.08
2022-10-30T08:27:16.238Z,33.23
2022-10-30T08:28:17.984Z,33.39
2022-10-30T08:29:19.703Z,33.50
2022-10-30T08:30:22.525Z,33.49
2022-10-30T08:31:24.188Z,33.64
2022-10-30T08:32:25.852Z,33.86
2022-10-30T08:33:27.519Z,33.95
2022-10-30T08:34:31.760Z,33.94
2022-10-30T08:35:33.574Z,33.96
2022-10-30T08:36:35.306Z,33.95
2022-10-30T08:37:36.990Z,33.97
2022-10-30T08:38:38.651Z,34.10
2022-10-30T08:39:40.296Z,34.15
2022-10-30T08:40:42.195Z,34.18
2022-10-30T08:41:44.592Z,34.25
2022-10-30T08:42:57.280Z,34.24
2022-10-30T08:43:58.936Z,34.19
2022-10-30T08:45:00.576Z,34.14
2022-10-30T08:46:02.324Z,34.12
2022-10-30T08:47:04.000Z,33.93
2022-10-30T08:48:06.511Z,33.92
2022-10-30T08:49:08.184Z,33.95
2022-10-30T08:50:10.017Z,34.00
2022-10-30T08:51:11.787Z,33.93
2022-10-30T08:52:13.433Z,33.66
2022-10-30T08:53:16.184Z,33.35
2022-10-30T08:54:17.900Z,33.39
2022-10-30T08:55:19.581Z,33.55
2022-10-30T08:56:21.223Z,33.67
2022-10-30T08:57:22.918Z,33.84
2022-10-30T08:58:24.620Z,34.02
2022-10-30T08:59:26.305Z,34.21
2022-10-30T09:00:28.202Z,34.17
2022-10-30T09:01:29.905Z,34.21
2022-10-30T09:02:31.795Z,34.35
2022-10-30T09:03:33.589Z,34.40
2022-10-30T09:04:36.140Z,34.51
2022-10-30T09:05:38.011Z,34.60
2022-10-30T09:06:39.699Z,34.56
2022-10-30T09:07:41.371Z,34.63
2022-10-30T09:08:43.088Z,34.73
2022-10-30T09:09:44.787Z,34.66
2022-10-30T09:10:46.456Z,34.66
2022-10-30T09:11:49.189Z,34.79
2022-10-30T09:13:02.584Z,34.84
2022-10-30T09:14:04.246Z,34.93
2022-10-30T09:15:07.007Z,34.95
2022-10-30T09:16:08.660Z,35.04
2022-10-30T09:17:10.418Z,35.13
2022-10-30T09:18:12.123Z,35.25
2022-10-30T09:19:18.567Z,35.25
2022-10-30T09:20:20.596Z,35.26
2022-10-30T09:21:22.260Z,35.34
2022-10-30T09:22:23.974Z,35.41
2022-10-30T09:23:25.630Z,35.38
2022-10-30T09:24:27.332Z,35.42
2022-10-30T09:25:29.023Z,35.56
2022-10-30T09:26:30.682Z,35.69
2022-10-30T09:27:32.385Z,35.84
2022-10-30T09:28:34.106Z,35.93
2022-10-30T09:29:36.024Z,35.97
2022-10-30T09:30:38.099Z,35.84
2022-10-30T09:31:40.064Z,35.30
2022-10-30T09:32:41.803Z,35.06
2022-10-30T09:33:43.441Z,35.11
2022-10-30T09:34:45.482Z,35.19
2022-10-30T09:35:47.140Z,35.28
2022-10-30T09:36:49.724Z,35.31
2022-10-30T09:37:51.404Z,35.36
2022-10-30T09:38:55.560Z,34.90
2022-10-30T09:39:57.198Z,34.63
2022-10-30T09:41:10.573Z,34.09
2022-10-30T09:42:18.221Z,33.63
2022-10-30T09:43:26.008Z,33.23
2022-10-30T09:45:15.334Z,33.62
2022-10-30T09:46:32.537Z,33.95
2022-10-30T09:48:13.046Z,34.29
2022-10-30T09:49:59.722Z,34.62
2022-10-30T09:51:36.203Z,34.95
2022-10-30T09:52:53.532Z,35.16
2022-10-30T09:54:05.532Z,35.29
2022-10-30T09:55:22.528Z,35.36
2022-10-30T09:56:39.368Z,35.52
2022-10-30T09:57:53.003Z,35.55
2022-10-30T09:59:01.031Z,35.53
2022-10-30T10:00:03.051Z,35.45
2022-10-30T10:01:20.094Z,35.36
2022-10-30T10:02:58.827Z,35.53
2022-10-30T10:04:26.549Z,35.72
2022-10-30T10:05:44.721Z,35.79
2022-10-30T10:06:51.001Z,35.93
2022-10-30T10:08:03.094Z,35.93
2022-10-30T10:09:12.959Z,35.94
2022-10-30T10:10:25.966Z,35.85
2022-10-30T10:11:36.149Z,35.93
2022-10-30T10:13:05.063Z,35.69
2022-10-30T10:14:15.071Z,35.82
2022-10-30T10:15:33.092Z,35.92
2022-10-30T10:16:38.356Z,36.05
2022-10-30T10:17:44.788Z,36.03
2022-10-30T10:18:57.403Z,36.10
2022-10-30T10:20:00.463Z,36.15
2022-10-30T10:21:09.860Z,36.07
2022-10-30T10:22:49.575Z,36.20
2022-10-30T10:24:03.688Z,36.21
2022-10-30T10:25:29.421Z,36.22
2022-10-30T10:26:53.588Z,35.96
2022-10-30T10:27:55.240Z,36.01
2022-10-30T10:29:12.464Z,35.99
2022-10-30T10:30:52.003Z,36.07
2022-10-30T10:32:08.886Z,36.05
2022-10-30T10:33:36.955Z,35.99
2022-10-30T10:35:00.036Z,36.11
2022-10-30T10:36:30.785Z,36.02
2022-10-30T10:37:56.936Z,35.59
2022-10-30T10:39:18.514Z,35.45
2022-10-30T10:41:04.860Z,35.07
2022-10-30T10:42:15.450Z,34.90
2022-10-30T10:43:38.556Z,34.52
2022-10-30T10:45:15.463Z,34.33
2022-10-30T10:46:43.942Z,34.03
2022-10-30T10:47:54.415Z,33.95
2022-10-30T10:49:18.225Z,33.50
2022-10-30T10:50:31.720Z,33.36
2022-10-30T10:51:42.211Z,32.53
2022-10-30T10:52:52.254Z,32.13
2022-10-30T10:54:04.908Z,32.27
2022-10-30T10:55:22.924Z,31.96
2022-10-30T10:56:33.264Z,32.18
2022-10-30T10:57:38.113Z,32.30
2022-10-30T10:58:55.460Z,32.35
2022-10-30T11:00:02.855Z,32.13
2022-10-30T11:01:09.588Z,32.10
2022-10-30T11:02:14.230Z,32.12
2022-10-30T11:03:22.034Z,32.22
2022-10-30T11:04:41.843Z,32.32
2022-10-30T11:06:02.246Z,32.33
2022-10-30T11:07:18.030Z,32.29
2022-10-30T11:08:31.259Z,32.27
2022-10-30T11:09:32.902Z,32.26
2022-10-30T11:10:34.586Z,32.14
2022-10-30T11:11:37.327Z,32.02
2022-10-30T11:12:38.999Z,31.98
2022-10-30T11:13:42.573Z,32.01
2022-10-30T11:14:44.420Z,31.96
2022-10-30T11:15:46.024Z,31.82
2022-10-30T11:16:55.366Z,31.71
2022-10-30T11:19:09.584Z,31.64
2022-10-30T11:20:42.612Z,31.50
2022-10-30T11:21:50.957Z,31.37
2022-10-30T11:22:52.701Z,31.23
2022-10-30T11:23:54.449Z,31.21
2022-10-30T11:24:56.098Z,31.19
2022-10-30T11:25:57.817Z,31.13
2022-10-30T11:27:25.041Z,31.09
2022-10-30T11:28:42.487Z,30.94
2022-10-30T11:29:56.568Z,30.89
2022-10-30T11:31:21.585Z,30.72
2022-10-30T11:32:27.614Z,30.59
2022-10-30T11:33:30.682Z,30.46
2022-10-30T11:34:39.175Z,30.31
2022-10-30T11:35:42.619Z,30.05
2022-10-30T11:36:45.722Z,29.98
2022-10-30T11:37:50.321Z,29.90
2022-10-30T11:38:56.020Z,29.74
2022-10-30T11:40:17.514Z,29.71
2022-10-30T11:41:20.559Z,29.69
2022-10-30T11:42:22.265Z,29.64
2022-10-30T11:43:25.687Z,29.55
2022-10-30T11:44:51.919Z,29.13
2022-10-30T11:45:54.401Z,28.83
2022-10-30T11:46:56.805Z,28.52
2022-10-30T11:48:02.750Z,28.20
2022-10-30T11:49:05.562Z,28.04
2022-10-30T11:50:20.094Z,27.71
2022-10-30T11:51:39.809Z,27.45
2022-10-30T11:52:43.114Z,27.26
2022-10-30T11:53:50.480Z,27.08
2022-10-30T11:54:57.267Z,27.05
2022-10-30T11:55:59.068Z,27.06
2022-10-30T11:57:00.787Z,27.09
2022-10-30T11:58:03.211Z,27.07
2022-10-30T11:59:05.927Z,26.87
2022-10-30T12:00:16.767Z,26.77
2022-10-30T12:01:27.486Z,26.58
2022-10-30T12:02:30.593Z,26.65
2022-10-30T12:03:38.358Z,26.73
2022-10-30T12:04:40.062Z,26.79
2022-10-30T12:05:44.923Z,26.72
2022-10-30T12:06:48.208Z,26.48
2022-10-30T12:07:49.897Z,26.45
2022-10-30T12:09:04.664Z,26.48
2022-10-30T12:10:27.432Z,26.49
2022-10-30T12:11:34.403Z,26.51
2022-10-30T12:12:42.747Z,26.46
2022-10-30T12:13:44.847Z,26.53
2022-10-30T12:14:46.708Z,26.53
2022-10-30T12:15:51.559Z,26.53
2022-10-30T12:16:56.317Z,26.47
2022-10-30T12:18:02.630Z,26.46
2022-10-30T12:19:09.348Z,26.47
2022-10-30T12:20:15.228Z,26.44
2022-10-30T12:21:19.577Z,26.36
2022-10-30T12:22:39.666Z,26.21
2022-10-30T12:23:41.417Z,26.15
2022-10-30T12:24:44.157Z,26.13
2022-10-30T12:25:51.415Z,26.10
2022-10-30T12:26:55.680Z,26.09
2022-10-30T12:28:14.956Z,26.01
2022-10-30T12:29:20.840Z,25.91
2022-10-30T12:30:22.502Z,25.87
2022-10-30T12:31:32.781Z,25.89
2022-10-30T12:32:46.618Z,25.82
2022-10-30T12:33:58.896Z,25.79
2022-10-30T12:35:08.838Z,25.72
2022-10-30T12:36:18.883Z,25.68
2022-10-30T12:37:29.496Z,25.63
2022-10-30T12:38:39.314Z,25.63
2022-10-30T12:40:10.817Z,25.52
2022-10-30T12:41:12.546Z,25.55
2022-10-30T12:42:17.054Z,25.54
2022-10-30T12:43:27.409Z,25.59
2022-10-30T12:44:35.015Z,25.51
2022-10-30T12:45:43.643Z,25.45
2022-10-30T12:47:01.417Z,25.40
2022-10-30T12:48:24.151Z,25.34
2022-10-30T12:49:31.259Z,25.34
2022-10-30T12:50:45.396Z,25.33
2022-10-30T12:51:57.124Z,25.20
2022-10-30T12:53:11.950Z,25.19
2022-10-30T12:54:22.939Z,25.10
2022-10-30T12:55:27.750Z,25.03
2022-10-30T12:56:37.574Z,24.98
2022-10-30T12:57:44.742Z,25.01
2022-10-30T12:59:10.440Z,24.98
2022-10-30T13:00:18.126Z,24.97
2022-10-30T13:01:27.178Z,24.97
2022-10-30T13:02:31.626Z,24.91
2022-10-30T13:03:39.391Z,24.95
2022-10-30T13:04:46.443Z,24.90
2022-10-30T13:05:57.385Z,24.88
2022-10-30T13:07:36.875Z,24.89
2022-10-30T13:09:06.605Z,24.81
2022-10-30T13:10:32.460Z,24.82
2022-10-30T13:11:57.264Z,24.84
2022-10-30T13:13:15.687Z,24.82
2022-10-30T13:14:21.672Z,24.81
2022-10-30T13:15:57.736Z,24.85
2022-10-30T13:16:59.427Z,24.87
2022-10-30T13:18:14.078Z,24.88
2022-10-30T13:19:15.798Z,24.88
2022-10-30T13:20:18.648Z,24.88
2022-10-30T13:21:40.748Z,24.84
2022-10-30T13:22:52.483Z,24.88
2022-10-30T13:24:10.589Z,24.84
2022-10-30T13:25:21.475Z,24.84
2022-10-30T13:26:41.178Z,24.78
2022-10-30T13:27:52.825Z,24.78
2022-10-30T13:29:12.793Z,24.74
2022-10-30T13:30:17.746Z,24.77
2022-10-30T13:31:23.977Z,24.80
2022-10-30T13:32:26.948Z,24.83
2022-10-30T13:33:42.077Z,24.75
2022-10-30T13:34:58.957Z,24.77
2022-10-30T13:36:10.557Z,24.73
2022-10-30T13:37:12.183Z,24.72
2022-10-30T13:38:38.610Z,24.74
2022-10-30T13:39:56.875Z,24.73
2022-10-30T13:41:03.871Z,24.73
2022-10-30T13:42:42.527Z,24.68
2022-10-30T13:44:02.151Z,24.67
2022-10-30T13:45:09.236Z,24.69
2022-10-30T13:46:43.462Z,24.67
2022-10-30T13:48:00.475Z,24.58
2022-10-30T13:49:14.485Z,24.53
2022-10-30T13:50:31.115Z,24.57
2022-10-30T13:51:44.244Z,24.50
2022-10-30T13:52:53.839Z,24.47
2022-10-30T13:54:31.031Z,24.48
2022-10-30T13:55:35.083Z,24.48
2022-10-30T13:56:37.191Z,24.45
2022-10-30T13:57:56.479Z,24.45
2022-10-30T13:59:25.388Z,24.31
2022-10-30T14:00:50.435Z,24.21
2022-10-30T14:02:07.010Z,24.26
2022-10-30T14:03:34.273Z,24.31
2022-10-30T14:05:01.740Z,24.29
2022-10-30T14:06:29.523Z,24.22
2022-10-30T14:07:45.859Z,24.22
2022-10-30T14:08:59.541Z,24.23
2022-10-30T14:10:16.165Z,24.21
2022-10-30T14:11:17.828Z,24.14
2022-10-30T14:12:51.299Z,24.08
2022-10-30T14:14:28.360Z,24.11
2022-10-30T14:15:29.947Z,24.12
2022-10-30T14:16:41.755Z,24.09
2022-10-30T14:18:14.459Z,24.02
2022-10-30T14:19:18.152Z,23.96
2022-10-30T14:20:27.021Z,23.93
2022-10-30T14:21:34.800Z,23.92
2022-10-30T14:22:37.806Z,23.82
2022-10-30T14:23:39.561Z,23.92
2022-10-30T14:24:45.507Z,23.91
2022-10-30T14:26:20.505Z,23.93